createdAt,value
2023-04-26T00:02:58.896Z,0
2023-04-26T00:18:19.857Z,0
2023-04-26T00:33:40.849Z,0
2023-04-26T00:49:01.798Z,0
2023-04-26T01:04:22.785Z,0
2023-04-26T01:19:43.771Z,0
2023-04-26T01:35:04.704Z,0
2023-04-26T01:50:25.692Z,0
2023-04-26T02:05:46.000Z,0
2023-04-26T02:21:07.605Z,0
2023-04-26T02:36:27.617Z,0
2023-04-26T02:51:48.579Z,0
2023-04-26T03:07:09.535Z,0
2023-04-26T03:37:51.397Z,0
2023-04-26T03:53:12.340Z,16
2023-04-26T04:08:33.244Z,45
2023-04-26T04:23:54.196Z,118
2023-04-26T04:39:14.152Z,376
2023-04-26T04:54:34.085Z,686
2023-04-26T05:09:54.053Z,1108
2023-04-26T05:25:14.012Z,1406
2023-04-26T05:40:34.931Z,1676
2023-04-26T05:41:56.011Z,1704
2023-04-26T05:43:17.071Z,1895
2023-04-26T05:44:38.157Z,1760
2023-04-26T05:45:59.225Z,1704
2023-04-26T05:47:20.318Z,1710
2023-04-26T05:48:41.405Z,1698
2023-04-26T05:50:02.478Z,1861
2023-04-26T05:51:23.532Z,1873
2023-04-26T05:52:44.617Z,1822
2023-04-26T05:54:05.699Z,1873
2023-04-26T05:55:26.789Z,1940
2023-04-26T05:56:46.872Z,1935
2023-04-26T05:58:07.941Z,1946
2023-04-26T05:59:29.036Z,2058
2023-04-26T06:00:50.101Z,1929
2023-04-26T06:02:11.174Z,1681
2023-04-26T06:03:32.257Z,1732
2023-04-26T06:04:53.328Z,2103
2023-04-26T06:06:13.436Z,2221
2023-04-26T06:07:33.524Z,2115
2023-04-26T06:08:53.626Z,1980
2023-04-26T06:10:13.707Z,2075
2023-04-26T06:11:34.781Z,2193
2023-04-26T06:12:55.878Z,2306
2023-04-26T06:14:16.934Z,2317
2023-04-26T06:15:38.034Z,2250
2023-04-26T06:16:59.097Z,2188
2023-04-26T06:18:20.180Z,2356
2023-04-26T06:19:41.256Z,2446
2023-04-26T06:21:02.342Z,2430
2023-04-26T06:22:23.401Z,2221
2023-04-26T06:23:44.474Z,2250
2023-04-26T06:25:05.574Z,2272
2023-04-26T06:26:26.656Z,2283
2023-04-26T06:27:46.739Z,2261
2023-04-26T06:29:07.825Z,2328
2023-04-26T06:30:28.893Z,2508
2023-04-26T06:31:49.981Z,2356
2023-04-26T06:33:11.037Z,2385
2023-04-26T06:34:32.121Z,2266
2023-04-26T06:35:53.207Z,2306
2023-04-26T06:37:13.296Z,2351
2023-04-26T06:38:33.397Z,2475
2023-04-26T06:39:54.463Z,2531
2023-04-26T06:41:15.558Z,2430
2023-04-26T06:42:36.632Z,2250
2023-04-26T06:43:57.705Z,2441
2023-04-26T06:45:18.775Z,2401
2023-04-26T06:46:39.863Z,2486
2023-04-26T06:48:00.945Z,2525
2023-04-26T06:49:22.001Z,1068
2023-04-26T06:50:43.099Z,2604
2023-04-26T06:52:04.179Z,2632
2023-04-26T06:53:25.243Z,2559
2023-04-26T06:54:46.341Z,2469
2023-04-26T06:56:06.418Z,2520
2023-04-26T06:57:27.499Z,2536
2023-04-26T06:58:48.573Z,2598
2023-04-26T07:00:09.657Z,2503
2023-04-26T07:01:30.707Z,2598
2023-04-26T07:02:51.802Z,2638
2023-04-26T07:04:12.874Z,2632
2023-04-26T07:05:32.978Z,2806
2023-04-26T07:06:53.077Z,2880
2023-04-26T07:08:13.190Z,556
2023-04-26T07:09:33.275Z,523
2023-04-26T07:10:53.370Z,2728
2023-04-26T07:12:13.482Z,2812
2023-04-26T07:13:34.544Z,2531
2023-04-26T07:14:55.619Z,1254
2023-04-26T07:17:37.763Z,466
2023-04-26T07:18:58.835Z,2745
2023-04-26T07:20:19.917Z,393
2023-04-26T07:21:40.985Z,416
2023-04-26T07:23:02.069Z,2441
2023-04-26T07:24:23.156Z,2700
2023-04-26T07:25:44.225Z,2632
2023-04-26T07:27:05.319Z,2863
2023-04-26T07:28:26.383Z,2778
2023-04-26T07:29:46.476Z,2835
2023-04-26T07:31:07.537Z,2953
2023-04-26T07:32:28.634Z,2919
2023-04-26T07:33:49.703Z,528
2023-04-26T07:35:10.765Z,495
2023-04-26T07:36:31.874Z,1749
2023-04-26T07:37:52.000Z,2221
2023-04-26T07:39:14.010Z,3031
2023-04-26T07:40:34.120Z,2851
2023-04-26T07:41:54.212Z,596
2023-04-26T07:43:15.280Z,2806
2023-04-26T07:44:36.353Z,2722
2023-04-26T07:45:57.425Z,2846
2023-04-26T07:47:18.521Z,2919
2023-04-26T07:48:39.577Z,2638
2023-04-26T07:50:00.000Z,2317
2023-04-26T07:51:21.732Z,3121
2023-04-26T07:52:42.846Z,1946
2023-04-26T07:54:03.893Z,3065
2023-04-26T07:55:24.971Z,708
2023-04-26T07:56:46.057Z,781
2023-04-26T07:58:07.118Z,2829
2023-04-26T07:59:27.233Z,3189
2023-04-26T08:00:48.303Z,1254
2023-04-26T08:02:09.384Z,2446
2023-04-26T08:03:30.466Z,2840
2023-04-26T08:04:51.534Z,2868
2023-04-26T08:06:12.594Z,2210
2023-04-26T08:07:33.698Z,2823
2023-04-26T08:08:53.774Z,1901
2023-04-26T08:10:13.865Z,500
2023-04-26T08:11:33.985Z,466
2023-04-26T08:12:54.089Z,455
2023-04-26T08:14:14.197Z,444
2023-04-26T08:15:34.252Z,433
2023-04-26T08:16:55.346Z,410
2023-04-26T08:18:16.404Z,354
2023-04-26T08:19:37.468Z,320
2023-04-26T08:20:58.532Z,298
2023-04-26T08:22:19.597Z,264
2023-04-26T08:23:40.662Z,247
2023-04-26T08:25:01.715Z,230
2023-04-26T08:26:22.803Z,247
2023-04-26T08:27:43.863Z,281
2023-04-26T08:29:04.935Z,309
2023-04-26T08:30:25.994Z,337
2023-04-26T08:31:47.079Z,466
2023-04-26T08:33:07.147Z,663
2023-04-26T08:34:28.193Z,708
2023-04-26T08:35:49.282Z,680
2023-04-26T08:37:10.340Z,478
2023-04-26T08:38:31.418Z,483
2023-04-26T08:39:52.477Z,517
2023-04-26T08:41:13.536Z,506
2023-04-26T08:42:33.644Z,506
2023-04-26T08:43:53.734Z,697
2023-04-26T08:45:14.821Z,601
2023-04-26T08:46:35.896Z,686
2023-04-26T08:47:56.961Z,663
2023-04-26T08:49:18.030Z,618
2023-04-26T08:50:39.095Z,461
2023-04-26T08:52:00.159Z,421
2023-04-26T08:53:21.230Z,382
2023-04-26T08:54:42.304Z,331
2023-04-26T08:56:03.363Z,281
2023-04-26T08:57:24.428Z,241
2023-04-26T08:58:45.505Z,225
2023-04-26T09:00:06.547Z,230
2023-04-26T09:01:26.633Z,275
2023-04-26T09:02:47.705Z,303
2023-04-26T09:04:07.785Z,292
2023-04-26T09:05:28.844Z,421
2023-04-26T09:06:49.924Z,483
2023-04-26T09:08:10.993Z,506
2023-04-26T09:09:32.054Z,511
2023-04-26T09:10:52.148Z,405
2023-04-26T09:12:12.232Z,382
2023-04-26T09:13:32.324Z,343
2023-04-26T09:14:52.410Z,292
2023-04-26T09:16:13.487Z,247
2023-04-26T09:17:34.533Z,225
2023-04-26T09:18:55.000Z,196
2023-04-26T09:21:37.751Z,174
2023-04-26T09:22:58.802Z,163
2023-04-26T09:24:19.879Z,157
2023-04-26T09:25:40.941Z,151
2023-04-26T09:27:01.990Z,151
2023-04-26T09:28:23.076Z,151
2023-04-26T09:29:44.134Z,157
2023-04-26T09:31:05.186Z,174
2023-04-26T09:32:25.270Z,174
2023-04-26T09:33:46.367Z,168
2023-04-26T09:35:07.407Z,163
2023-04-26T09:36:28.479Z,174
2023-04-26T09:37:49.558Z,185
2023-04-26T09:39:10.600Z,208
2023-04-26T09:40:31.691Z,230
2023-04-26T09:41:52.740Z,236
2023-04-26T09:43:13.965Z,247
2023-04-26T09:44:34.037Z,253
2023-04-26T09:45:55.119Z,258
2023-04-26T09:47:15.205Z,258
2023-04-26T09:48:36.269Z,247
2023-04-26T09:49:56.344Z,258
2023-04-26T09:51:17.422Z,275
2023-04-26T09:52:38.491Z,275
2023-04-26T09:53:59.549Z,286
2023-04-26T09:55:20.614Z,309
2023-04-26T09:56:41.703Z,320
2023-04-26T09:58:02.761Z,315
2023-04-26T09:59:23.812Z,315
2023-04-26T10:00:44.882Z,354
2023-04-26T10:02:05.963Z,354
2023-04-26T10:03:27.015Z,438
2023-04-26T10:04:48.091Z,551
2023-04-26T10:06:09.151Z,562
2023-04-26T10:07:29.235Z,478
2023-04-26T10:08:50.305Z,506
2023-04-26T10:10:11.365Z,545
2023-04-26T10:11:32.448Z,495
2023-04-26T10:12:53.517Z,438
2023-04-26T10:14:14.572Z,410
2023-04-26T10:15:34.672Z,393
2023-04-26T10:16:54.757Z,388
2023-04-26T10:18:15.831Z,388
2023-04-26T10:19:35.897Z,388
2023-04-26T10:20:56.005Z,365
2023-04-26T10:22:17.056Z,343
2023-04-26T10:23:38.131Z,337
2023-04-26T10:24:59.196Z,331
2023-04-26T10:26:20.274Z,337
2023-04-26T10:27:41.329Z,331
2023-04-26T10:29:02.401Z,331
2023-04-26T10:30:23.469Z,450
2023-04-26T10:33:05.602Z,450
2023-04-26T10:34:26.666Z,405
2023-04-26T10:35:47.722Z,388
2023-04-26T10:37:08.795Z,382
2023-04-26T10:38:28.884Z,371
2023-04-26T10:39:49.967Z,371
2023-04-26T10:41:11.017Z,348
2023-04-26T10:42:32.098Z,320
2023-04-26T10:43:53.158Z,303
2023-04-26T10:45:14.224Z,286
2023-04-26T10:46:35.286Z,275
2023-04-26T10:47:56.359Z,270
2023-04-26T10:49:16.444Z,275
2023-04-26T10:50:36.544Z,275
2023-04-26T10:51:56.625Z,281
2023-04-26T10:53:16.722Z,292
2023-04-26T10:54:37.790Z,315
2023-04-26T10:55:58.858Z,326
2023-04-26T10:57:19.923Z,315
2023-04-26T10:58:40.973Z,309
2023-04-26T11:00:02.043Z,315
2023-04-26T11:01:23.124Z,320
2023-04-26T11:02:44.178Z,331
2023-04-26T11:04:05.243Z,309
2023-04-26T11:05:26.310Z,303
2023-04-26T11:06:47.372Z,315
2023-04-26T11:08:08.439Z,320
2023-04-26T11:09:29.507Z,320
2023-04-26T11:10:49.597Z,326
2023-04-26T11:12:10.667Z,337
2023-04-26T11:13:31.725Z,371
2023-04-26T11:14:52.793Z,388
2023-04-26T11:16:13.878Z,382
2023-04-26T11:17:34.933Z,388
2023-04-26T11:18:56.010Z,376
2023-04-26T11:20:16.092Z,371
2023-04-26T11:21:36.168Z,365
2023-04-26T11:22:57.244Z,354
2023-04-26T11:24:18.306Z,331
2023-04-26T11:25:38.397Z,303
2023-04-26T11:26:58.493Z,275
2023-04-26T11:28:19.561Z,258
2023-04-26T11:29:40.618Z,247
2023-04-26T11:31:01.688Z,247
2023-04-26T11:32:22.750Z,258
2023-04-26T11:33:43.835Z,270
2023-04-26T11:35:04.896Z,298
2023-04-26T11:36:25.957Z,315
2023-04-26T11:37:47.022Z,320
2023-04-26T11:39:08.110Z,331
2023-04-26T11:40:29.172Z,331
2023-04-26T11:41:50.230Z,326
2023-04-26T11:43:11.310Z,303
2023-04-26T11:44:31.395Z,292
2023-04-26T11:45:52.451Z,281
2023-04-26T11:47:13.508Z,264
2023-04-26T11:48:34.581Z,258
2023-04-26T11:49:55.000Z,258
2023-04-26T11:52:37.000Z,270
2023-04-26T11:53:58.848Z,309
2023-04-26T11:55:18.935Z,292
2023-04-26T11:56:39.020Z,286
2023-04-26T11:58:00.081Z,286
2023-04-26T11:59:21.167Z,298
2023-04-26T12:00:42.000Z,303
2023-04-26T12:02:03.295Z,309
2023-04-26T12:03:24.351Z,303
2023-04-26T12:04:45.430Z,309
2023-04-26T12:06:06.481Z,315
2023-04-26T12:07:27.552Z,309
2023-04-26T12:08:48.616Z,303
2023-04-26T12:10:09.679Z,298
2023-04-26T12:11:30.746Z,303
2023-04-26T12:12:51.811Z,303
2023-04-26T12:14:11.000Z,303
2023-04-26T12:15:32.966Z,315
2023-04-26T12:16:54.040Z,326
2023-04-26T12:18:15.107Z,326
2023-04-26T12:19:36.171Z,337
2023-04-26T12:20:57.240Z,348
2023-04-26T12:22:18.294Z,371
2023-04-26T12:23:38.394Z,433
2023-04-26T12:24:58.471Z,410
2023-04-26T12:26:19.532Z,388
2023-04-26T12:27:40.605Z,399
2023-04-26T12:29:01.670Z,382
2023-04-26T12:30:22.000Z,382
2023-04-26T12:31:43.801Z,393
2023-04-26T12:33:04.874Z,376
2023-04-26T12:34:25.950Z,365
2023-04-26T12:35:47.008Z,365
2023-04-26T12:37:08.075Z,354
2023-04-26T12:38:29.141Z,337
2023-04-26T12:39:50.000Z,331
2023-04-26T12:41:11.263Z,331
2023-04-26T12:42:31.348Z,331
2023-04-26T12:43:52.423Z,326
2023-04-26T12:45:13.493Z,315
2023-04-26T12:46:34.566Z,298
2023-04-26T12:47:55.614Z,281
2023-04-26T12:49:16.687Z,270
2023-04-26T12:50:37.749Z,275
2023-04-26T12:51:57.851Z,270
2023-04-26T12:53:17.925Z,270
2023-04-26T12:54:38.014Z,270
2023-04-26T12:55:58.108Z,281
2023-04-26T12:57:19.165Z,275
2023-04-26T12:58:40.238Z,264
2023-04-26T13:00:01.301Z,253
2023-04-26T13:01:22.000Z,247
2023-04-26T13:02:43.446Z,247
2023-04-26T13:04:04.508Z,258
2023-04-26T13:05:25.566Z,270
2023-04-26T13:06:46.650Z,275
2023-04-26T13:08:07.695Z,286
2023-04-26T13:09:28.765Z,298
2023-04-26T13:10:49.836Z,298
2023-04-26T13:12:10.896Z,286
2023-04-26T13:13:30.986Z,281
2023-04-26T13:14:52.054Z,270
2023-04-26T13:16:13.125Z,270
2023-04-26T13:17:34.189Z,270
2023-04-26T13:18:55.266Z,264
2023-04-26T13:20:16.337Z,253
2023-04-26T13:21:37.397Z,241
2023-04-26T13:22:57.481Z,213
2023-04-26T13:24:17.566Z,196
2023-04-26T13:25:37.667Z,185
2023-04-26T13:26:57.758Z,168
2023-04-26T13:28:18.958Z,151
2023-04-26T13:29:39.046Z,146
2023-04-26T13:30:59.140Z,135
2023-04-26T13:32:19.000Z,129
2023-04-26T13:33:40.288Z,129
2023-04-26T13:35:00.367Z,123
2023-04-26T13:36:21.439Z,118
2023-04-26T13:37:42.509Z,118
2023-04-26T13:39:03.570Z,112
2023-04-26T13:40:24.633Z,118
2023-04-26T13:41:45.710Z,123
2023-04-26T13:43:06.768Z,123
2023-04-26T13:44:27.843Z,135
2023-04-26T13:45:48.902Z,140
2023-04-26T13:47:09.993Z,146
2023-04-26T13:48:31.054Z,151
2023-04-26T13:49:52.117Z,163
2023-04-26T13:51:13.191Z,168
2023-04-26T13:52:33.271Z,180
2023-04-26T13:53:54.338Z,174
2023-04-26T13:55:15.418Z,168
2023-04-26T13:56:36.474Z,163
2023-04-26T13:57:57.544Z,157
2023-04-26T13:59:18.770Z,146
2023-04-26T14:00:38.847Z,135
2023-04-26T14:01:58.937Z,129
2023-04-26T14:03:19.022Z,123
2023-04-26T14:04:40.084Z,118
2023-04-26T14:06:01.145Z,118
2023-04-26T14:07:22.204Z,118
2023-04-26T14:08:43.270Z,118
2023-04-26T14:10:04.360Z,118
2023-04-26T14:11:25.415Z,123
2023-04-26T14:12:46.481Z,123
2023-04-26T14:14:07.558Z,123
2023-04-26T14:15:28.609Z,123
2023-04-26T14:16:49.674Z,123
2023-04-26T14:18:10.739Z,118
2023-04-26T14:19:31.816Z,112
2023-04-26T14:20:51.889Z,106
2023-04-26T14:22:12.957Z,106
2023-04-26T14:23:34.035Z,101
2023-04-26T14:24:55.091Z,101
2023-04-26T14:26:16.149Z,106
2023-04-26T14:27:37.236Z,106
2023-04-26T14:28:58.296Z,106
2023-04-26T14:30:18.395Z,118
2023-04-26T14:31:39.584Z,123
2023-04-26T14:33:00.652Z,135
2023-04-26T14:34:20.756Z,140
2023-04-26T14:35:40.825Z,146
2023-04-26T14:37:01.896Z,157
2023-04-26T14:38:22.957Z,168
2023-04-26T14:39:44.017Z,180
2023-04-26T14:41:05.094Z,185
2023-04-26T14:42:26.150Z,196
2023-04-26T14:43:47.230Z,202
2023-04-26T14:45:08.287Z,275
2023-04-26T14:46:29.352Z,196
2023-04-26T14:47:50.000Z,202
2023-04-26T14:49:11.512Z,202
2023-04-26T14:50:32.561Z,202
2023-04-26T14:51:53.628Z,202
2023-04-26T14:53:13.707Z,196
2023-04-26T14:54:34.776Z,196
2023-04-26T14:55:55.845Z,196
2023-04-26T14:57:16.918Z,191
2023-04-26T14:58:37.989Z,191
2023-04-26T14:59:59.043Z,191
2023-04-26T15:01:20.114Z,191
2023-04-26T15:02:40.206Z,185
2023-04-26T15:04:00.286Z,180
2023-04-26T15:05:20.392Z,180
2023-04-26T15:06:40.459Z,174
2023-04-26T15:08:01.543Z,174
2023-04-26T15:09:22.605Z,174
2023-04-26T15:10:43.663Z,174
2023-04-26T15:12:04.724Z,174
2023-04-26T15:13:25.787Z,180
2023-04-26T15:14:46.878Z,180
2023-04-26T15:16:07.929Z,180
2023-04-26T15:17:28.996Z,185
2023-04-26T15:18:50.063Z,185
2023-04-26T15:20:11.131Z,185
2023-04-26T15:21:32.194Z,185
2023-04-26T15:22:53.255Z,180
2023-04-26T15:24:13.347Z,180
2023-04-26T15:25:34.416Z,174
2023-04-26T15:26:55.488Z,174
2023-04-26T15:28:16.558Z,174
2023-04-26T15:29:37.629Z,180
2023-04-26T15:30:58.694Z,174
2023-04-26T15:32:19.756Z,174
2023-04-26T15:33:39.857Z,174
2023-04-26T15:34:59.936Z,163
2023-04-26T15:36:20.026Z,157
2023-04-26T15:37:40.129Z,146
2023-04-26T15:39:01.190Z,146
2023-04-26T15:40:22.246Z,140
2023-04-26T15:41:43.303Z,135
2023-04-26T15:43:04.391Z,135
2023-04-26T15:44:25.469Z,129
2023-04-26T15:45:46.521Z,123
2023-04-26T15:47:07.608Z,123
2023-04-26T15:48:28.669Z,123
2023-04-26T15:49:49.725Z,129
2023-04-26T15:51:10.799Z,129
2023-04-26T15:52:31.856Z,135
2023-04-26T15:53:52.923Z,140
2023-04-26T15:55:13.022Z,140
2023-04-26T15:56:34.087Z,140
2023-04-26T15:57:55.149Z,140
2023-04-26T15:59:16.208Z,135
2023-04-26T16:00:37.275Z,129
2023-04-26T16:01:58.359Z,129
2023-04-26T16:03:19.407Z,129
2023-04-26T16:04:39.514Z,129
2023-04-26T16:06:00.587Z,123
2023-04-26T16:07:20.679Z,123
2023-04-26T16:08:40.766Z,118
2023-04-26T16:10:00.839Z,123
2023-04-26T16:11:21.897Z,118
2023-04-26T16:12:42.974Z,118
2023-04-26T16:14:04.035Z,118
2023-04-26T16:15:25.116Z,118
2023-04-26T16:16:46.191Z,123
2023-04-26T16:18:07.251Z,118
2023-04-26T16:19:28.318Z,118
2023-04-26T16:20:49.392Z,118
2023-04-26T16:22:10.455Z,112
2023-04-26T16:23:31.515Z,106
2023-04-26T16:24:52.570Z,101
2023-04-26T16:26:13.649Z,95
2023-04-26T16:27:33.747Z,95
2023-04-26T16:28:54.810Z,90
2023-04-26T16:30:15.873Z,84
2023-04-26T16:31:36.923Z,84
2023-04-26T16:32:57.997Z,84
2023-04-26T16:34:19.067Z,78
2023-04-26T16:35:40.152Z,73
2023-04-26T16:37:00.233Z,73
2023-04-26T16:38:20.300Z,67
2023-04-26T16:39:41.383Z,61
2023-04-26T16:41:02.448Z,61
2023-04-26T16:42:23.507Z,61
2023-04-26T16:43:44.575Z,56
2023-04-26T16:45:05.654Z,50
2023-04-26T16:46:26.715Z,50
2023-04-26T16:47:47.776Z,45
2023-04-26T16:49:08.860Z,45
2023-04-26T16:50:29.923Z,45
2023-04-26T16:51:50.988Z,45
2023-04-26T16:53:12.075Z,39
2023-04-26T16:54:33.132Z,39
2023-04-26T16:55:53.206Z,39
2023-04-26T16:57:14.287Z,39
2023-04-26T16:58:35.358Z,39
2023-04-26T16:59:56.405Z,39
2023-04-26T17:01:17.492Z,39
2023-04-26T17:02:38.559Z,39
2023-04-26T17:03:59.619Z,39
2023-04-26T17:05:19.721Z,45
2023-04-26T17:06:39.797Z,45
2023-04-26T17:08:00.849Z,45
2023-04-26T17:09:21.931Z,45
2023-04-26T17:10:43.006Z,45
2023-04-26T17:12:04.049Z,39
2023-04-26T17:13:25.133Z,39
2023-04-26T17:14:46.212Z,39
2023-04-26T17:16:07.276Z,39
2023-04-26T17:17:28.350Z,39
2023-04-26T17:18:49.391Z,39
2023-04-26T17:20:10.468Z,39
2023-04-26T17:21:31.541Z,39
2023-04-26T17:22:52.000Z,39
2023-04-26T17:24:12.693Z,39
2023-04-26T17:25:33.769Z,39
2023-04-26T17:26:54.000Z,39
2023-04-26T17:28:15.905Z,39
2023-04-26T17:29:36.949Z,39
2023-04-26T17:30:58.047Z,33
2023-04-26T17:32:19.111Z,33
2023-04-26T17:33:39.203Z,33
2023-04-26T17:34:59.270Z,33
2023-04-26T17:36:19.378Z,39
2023-04-26T17:37:39.440Z,50
2023-04-26T17:39:00.532Z,50
2023-04-26T17:40:21.594Z,50
2023-04-26T17:41:42.674Z,50
2023-04-26T17:43:03.727Z,50
2023-04-26T17:44:24.786Z,50
2023-04-26T17:45:45.875Z,50
2023-04-26T17:47:06.947Z,45
2023-04-26T17:48:28.004Z,45
2023-04-26T17:49:49.081Z,45
2023-04-26T17:51:10.133Z,39
2023-04-26T17:52:31.211Z,33
2023-04-26T17:53:52.277Z,28
2023-04-26T17:55:12.361Z,28
2023-04-26T17:56:33.439Z,28
2023-04-26T17:57:54.515Z,22
2023-04-26T17:59:15.579Z,22
2023-04-26T18:00:36.629Z,22
2023-04-26T18:01:57.701Z,22
2023-04-26T18:03:18.770Z,22
2023-04-26T18:04:38.841Z,16
2023-04-26T18:05:58.949Z,16
2023-04-26T18:07:19.038Z,16
2023-04-26T18:08:39.115Z,11
2023-04-26T18:09:59.225Z,11
2023-04-26T18:11:19.300Z,11
2023-04-26T18:12:40.371Z,11
2023-04-26T18:14:01.444Z,11
2023-04-26T18:15:22.510Z,5
2023-04-26T18:16:43.565Z,5
2023-04-26T18:18:04.631Z,5
2023-04-26T18:19:25.697Z,5
2023-04-26T18:20:46.772Z,5
2023-04-26T18:22:07.829Z,5
2023-04-26T18:23:28.889Z,5
2023-04-26T18:24:49.966Z,0
2023-04-26T18:26:11.020Z,0
2023-04-26T18:27:32.107Z,0
2023-04-26T18:28:52.184Z,0
2023-04-26T18:30:13.261Z,0
2023-04-26T18:31:34.327Z,0
2023-04-26T18:32:55.366Z,0
2023-04-26T18:34:16.434Z,0
2023-04-26T18:36:58.589Z,0
2023-04-26T18:38:19.664Z,0
2023-04-26T18:39:39.746Z,0
2023-04-26T18:40:59.834Z,0
2023-04-26T18:42:19.918Z,0
2023-04-26T18:43:40.015Z,0
2023-04-26T18:45:01.073Z,0
2023-04-26T18:46:22.145Z,0
2023-04-26T18:47:43.209Z,0
2023-04-26T18:49:04.283Z,0
2023-04-26T18:50:25.329Z,0
2023-04-26T18:51:46.403Z,0
2023-04-26T18:53:07.508Z,0
2023-04-26T18:54:28.595Z,0
2023-04-26T18:55:49.656Z,0
2023-04-26T18:57:10.705Z,0
2023-04-26T18:58:31.818Z,0
2023-04-26T18:59:52.952Z,0
2023-04-26T19:01:13.065Z,0
2023-04-26T19:02:34.190Z,0
2023-04-26T19:03:55.283Z,0
2023-04-26T19:05:16.393Z,0
2023-04-26T19:06:37.490Z,0
2023-04-26T19:07:58.631Z,0
2023-04-26T19:09:19.733Z,0
2023-04-26T19:10:39.861Z,0
2023-04-26T19:11:59.985Z,0
2023-04-26T19:13:21.100Z,0
2023-04-26T19:14:42.205Z,0
2023-04-26T19:16:03.323Z,0
2023-04-26T19:17:24.420Z,0
2023-04-26T19:18:45.538Z,0
2023-04-26T19:20:06.641Z,0
2023-04-26T19:21:27.736Z,0
2023-04-26T19:22:48.852Z,0
2023-04-26T19:24:09.968Z,0
2023-04-26T19:25:31.064Z,0
2023-04-26T19:26:52.204Z,0
2023-04-26T19:28:13.287Z,0
2023-04-26T19:29:33.434Z,0
2023-04-26T19:30:54.520Z,0
2023-04-26T19:32:15.657Z,0
2023-04-26T19:33:36.774Z,0
2023-04-26T19:34:57.887Z,0
2023-04-26T19:36:18.989Z,0
2023-04-26T19:37:40.088Z,0
2023-04-26T19:39:00.210Z,0
2023-04-26T19:40:20.355Z,0
2023-04-26T19:41:40.481Z,0
2023-04-26T19:43:01.736Z,0
2023-04-26T19:44:22.855Z,0
2023-04-26T19:45:42.987Z,0
2023-04-26T19:47:03.099Z,0
2023-04-26T19:48:24.217Z,0
2023-04-26T19:49:45.310Z,0
2023-04-26T19:51:06.432Z,0
2023-04-26T19:52:27.536Z,0
2023-04-26T19:53:48.658Z,0
2023-04-26T19:55:09.773Z,0
2023-04-26T19:56:30.867Z,0
2023-04-26T19:57:51.968Z,0
2023-04-26T19:59:13.099Z,0
2023-04-26T20:00:34.200Z,0
2023-04-26T20:01:55.319Z,0
2023-04-26T20:03:16.427Z,0
2023-04-26T20:04:36.569Z,0
2023-04-26T20:05:57.670Z,0
2023-04-26T20:07:18.770Z,0
2023-04-26T20:08:39.901Z,0
2023-04-26T20:10:00.988Z,0
2023-04-26T20:11:22.094Z,0
2023-04-26T20:12:43.234Z,0
2023-04-26T20:14:03.347Z,0
2023-04-26T20:15:23.488Z,0
2023-04-26T20:16:44.587Z,0
2023-04-26T20:18:05.713Z,0
2023-04-26T20:19:26.808Z,0
2023-04-26T20:20:47.930Z,0
2023-04-26T20:22:09.032Z,0
2023-04-26T20:23:30.154Z,0
2023-04-26T20:24:51.237Z,0
2023-04-26T20:26:12.370Z,0
2023-04-26T20:27:33.000Z,0
2023-04-26T20:28:54.586Z,0
2023-04-26T20:30:15.696Z,0
2023-04-26T20:31:36.812Z,0
2023-04-26T20:32:56.929Z,0
2023-04-26T20:34:18.019Z,0
2023-04-26T20:35:39.000Z,0
2023-04-26T20:37:00.249Z,0
2023-04-26T20:38:21.000Z,0
2023-04-26T20:39:42.477Z,0
2023-04-26T20:41:03.000Z,0
2023-04-26T20:42:23.710Z,0
2023-04-26T20:43:43.819Z,0
2023-04-26T20:45:03.969Z,0
2023-04-26T20:46:24.075Z,0
2023-04-26T20:47:44.226Z,0
2023-04-26T20:49:04.357Z,0
2023-04-26T20:50:25.466Z,0
2023-04-26T20:51:46.000Z,0
2023-04-26T20:54:28.771Z,0
2023-04-26T20:55:49.909Z,0
2023-04-26T20:57:10.987Z,0
2023-04-26T20:58:32.110Z,0
2023-04-26T20:59:53.214Z,0
2023-04-26T21:01:14.337Z,0
2023-04-26T21:02:35.419Z,0
2023-04-26T21:03:56.553Z,0
2023-04-26T21:05:17.000Z,0
2023-04-26T21:06:37.767Z,0
2023-04-26T21:07:58.000Z,0
2023-04-26T21:09:20.010Z,0
2023-04-26T21:10:41.103Z,0
2023-04-26T21:12:02.219Z,0
2023-04-26T21:13:23.326Z,0
2023-04-26T21:14:44.446Z,0
2023-04-26T21:16:05.527Z,0
2023-04-26T21:17:25.682Z,0
2023-04-26T21:18:45.000Z,0
2023-04-26T21:20:05.950Z,0
2023-04-26T21:21:26.055Z,0
2023-04-26T21:22:47.183Z,0
2023-04-26T21:24:08.258Z,0
2023-04-26T21:25:29.380Z,0
2023-04-26T21:26:50.478Z,0
2023-04-26T21:28:11.610Z,0
2023-04-26T21:29:32.698Z,0
2023-04-26T21:30:53.801Z,0
2023-04-26T21:32:14.000Z,0
2023-04-26T21:33:36.042Z,0
2023-04-26T21:34:57.000Z,0
2023-04-26T21:36:18.254Z,0
2023-04-26T21:37:39.344Z,0
2023-04-26T21:38:59.492Z,0
2023-04-26T21:40:20.581Z,0
2023-04-26T21:41:41.713Z,0
2023-04-26T21:43:02.807Z,0
2023-04-26T21:44:23.921Z,0
2023-04-26T21:45:45.019Z,0
2023-04-26T21:47:06.135Z,0
2023-04-26T21:48:26.261Z,0
2023-04-26T21:51:07.505Z,0
2023-04-26T21:52:27.647Z,0
2023-04-26T21:53:47.768Z,0
2023-04-26T21:55:08.879Z,0
2023-04-26T21:56:29.992Z,0
2023-04-26T21:57:51.101Z,0
2023-04-26T21:59:12.222Z,0
2023-04-26T22:00:33.322Z,0
2023-04-26T22:01:54.407Z,0
2023-04-26T22:03:15.537Z,0
2023-04-26T22:04:36.630Z,0
2023-04-26T22:19:57.629Z,0
2023-04-26T22:35:18.588Z,0
2023-04-26T22:50:39.588Z,0
2023-04-26T23:06:00.000Z,0
2023-04-26T23:21:20.533Z,0
2023-04-26T23:36:41.503Z,0
2023-04-26T23:52:02.503Z,0
